createdAt,value
2023-03-24T00:00:38.790Z,11.00
2023-03-24T00:05:43.941Z,11.06
2023-03-24T00:10:47.679Z,11.00
2023-03-24T00:15:50.528Z,11.02
2023-03-24T00:20:58.676Z,10.99
2023-03-24T00:26:03.007Z,11.02
2023-03-24T00:31:08.727Z,10.93
2023-03-24T00:36:13.420Z,10.93
2023-03-24T00:41:17.994Z,11.01
2023-03-24T00:46:28.666Z,10.95
2023-03-24T00:51:37.773Z,11.02
2023-03-24T00:56:41.432Z,10.99
2023-03-24T01:01:45.177Z,10.99
2023-03-24T01:06:49.603Z,11.02
2023-03-24T01:11:52.827Z,11.05
2023-03-24T01:16:55.850Z,11.10
2023-03-24T01:22:00.530Z,11.13
2023-03-24T01:27:03.392Z,11.13
2023-03-24T01:32:06.755Z,11.12
2023-03-24T01:37:11.143Z,11.12
2023-03-24T01:42:18.830Z,11.23
2023-03-24T01:47:21.654Z,11.22
2023-03-24T01:52:28.747Z,11.19
2023-03-24T01:57:34.474Z,11.10
2023-03-24T02:02:37.938Z,11.22
2023-03-24T02:07:47.153Z,11.16
2023-03-24T02:12:50.461Z,11.15
2023-03-24T02:18:03.533Z,11.19
2023-03-24T02:23:22.510Z,11.12
2023-03-24T02:28:33.039Z,11.04
2023-03-24T02:34:11.267Z,11.06
2023-03-24T02:39:31.868Z,11.12
2023-03-24T02:44:40.744Z,11.16
2023-03-24T02:49:47.260Z,11.16
2023-03-24T02:54:56.291Z,11.18
2023-03-24T03:00:01.606Z,11.19
2023-03-24T03:05:28.716Z,11.22
2023-03-24T03:10:37.379Z,11.29
2023-03-24T03:15:44.551Z,11.31
2023-03-24T03:20:53.111Z,11.34
2023-03-24T03:26:04.786Z,11.32
2023-03-24T03:31:10.496Z,11.40
2023-03-24T03:36:17.740Z,11.38
2023-03-24T03:41:22.493Z,11.54
2023-03-24T03:46:27.122Z,11.63
2023-03-24T03:51:30.516Z,11.70
2023-03-24T03:56:36.960Z,11.76
2023-03-24T04:02:11.077Z,11.83
2023-03-24T04:07:19.765Z,11.83
2023-03-24T04:13:00.238Z,11.94
2023-03-24T04:19:12.718Z,11.97
2023-03-24T04:24:27.452Z,11.94
2023-03-24T04:29:42.960Z,11.92
2023-03-24T04:34:50.799Z,11.93
2023-03-24T04:40:15.472Z,12.00
2023-03-24T04:45:20.541Z,12.03
2023-03-24T04:50:45.438Z,11.98
2023-03-24T04:55:59.815Z,11.93
2023-03-24T05:01:22.236Z,11.77
2023-03-24T05:06:46.673Z,11.62
2023-03-24T05:11:52.694Z,11.55
2023-03-24T05:16:58.608Z,11.51
2023-03-24T05:22:01.955Z,11.43
2023-03-24T05:27:05.934Z,11.39
2023-03-24T05:32:10.158Z,11.30
2023-03-24T05:37:14.335Z,11.28
2023-03-24T05:42:17.665Z,11.31
2023-03-24T05:47:21.718Z,11.25
2023-03-24T05:52:25.237Z,11.17
2023-03-24T05:57:37.101Z,11.19
2023-03-24T06:03:07.562Z,11.21
2023-03-24T06:08:20.240Z,11.29
2023-03-24T06:13:22.958Z,11.35
2023-03-24T06:18:27.900Z,11.22
2023-03-24T06:23:33.926Z,11.28
2023-03-24T06:28:44.137Z,11.30
2023-03-24T06:33:53.758Z,11.38
2023-03-24T06:38:56.666Z,11.38
2023-03-24T06:44:01.131Z,11.25
2023-03-24T06:49:05.848Z,11.19
2023-03-24T06:54:08.965Z,11.13
2023-03-24T06:59:12.018Z,10.94
2023-03-24T07:04:16.156Z,10.86
2023-03-24T07:09:34.315Z,10.63
2023-03-24T07:14:37.045Z,10.56
2023-03-24T07:19:42.999Z,10.57
2023-03-24T07:25:04.917Z,10.76
2023-03-24T07:30:22.309Z,10.84
2023-03-24T07:35:32.190Z,10.77
2023-03-24T07:40:35.569Z,10.79
2023-03-24T07:45:38.413Z,10.85
2023-03-24T07:50:43.350Z,10.77
2023-03-24T07:56:06.741Z,10.85
2023-03-24T08:01:13.811Z,10.78
2023-03-24T08:06:21.981Z,10.88
2023-03-24T08:11:28.530Z,10.81
2023-03-24T08:16:31.682Z,10.89
2023-03-24T08:21:35.993Z,10.93
2023-03-24T08:26:38.711Z,11.40
2023-03-24T08:31:41.423Z,10.93
2023-03-24T08:36:45.499Z,11.06
2023-03-24T08:41:50.072Z,11.53
2023-03-24T08:46:52.855Z,11.59
2023-03-24T08:51:56.916Z,11.36
2023-03-24T08:56:59.674Z,11.93
2023-03-24T09:02:02.491Z,11.89
2023-03-24T09:07:06.999Z,11.85
2023-03-24T09:12:09.757Z,11.70
2023-03-24T09:17:12.482Z,11.82
2023-03-24T09:22:16.604Z,12.12
2023-03-24T09:27:19.540Z,11.67
2023-03-24T09:32:22.402Z,11.68
2023-03-24T09:37:29.810Z,11.79
2023-03-24T09:42:35.759Z,12.34
2023-03-24T09:47:41.940Z,12.25
2023-03-24T09:52:49.715Z,12.40
2023-03-24T09:57:54.300Z,12.12
2023-03-24T10:03:00.802Z,11.81
2023-03-24T10:08:13.625Z,12.18
2023-03-24T10:13:21.629Z,12.75
2023-03-24T10:18:35.994Z,12.70
2023-03-24T10:23:42.240Z,12.47
2023-03-24T10:28:46.713Z,12.42
2023-03-24T10:33:49.417Z,12.42
2023-03-24T10:38:53.457Z,12.22
2023-03-24T10:43:58.131Z,12.25
2023-03-24T10:49:10.175Z,12.41
2023-03-24T10:54:18.255Z,13.15
2023-03-24T10:59:27.523Z,13.03
2023-03-24T11:04:32.045Z,12.86
2023-03-24T11:09:44.646Z,12.50
2023-03-24T11:14:47.437Z,13.70
2023-03-24T11:19:54.305Z,13.00
2023-03-24T11:24:58.722Z,12.84
2023-03-24T11:30:01.500Z,12.92
2023-03-24T11:35:07.338Z,12.91
2023-03-24T11:40:20.905Z,12.75
2023-03-24T11:45:29.152Z,12.60
2023-03-24T11:50:34.562Z,12.96
2023-03-24T11:55:44.229Z,13.34
2023-03-24T12:00:49.759Z,13.25
2023-03-24T12:05:58.316Z,13.40
2023-03-24T12:11:19.228Z,13.44
2023-03-24T12:16:40.315Z,13.36
2023-03-24T12:21:52.273Z,13.81
2023-03-24T12:26:59.236Z,14.09
2023-03-24T12:32:13.693Z,13.72
2023-03-24T12:37:21.264Z,13.82
2023-03-24T12:42:26.561Z,13.54
2023-03-24T12:47:43.455Z,13.68
2023-03-24T12:58:13.929Z,13.58
2023-03-24T13:03:19.792Z,13.39
2023-03-24T13:08:29.575Z,13.51
2023-03-24T13:13:37.623Z,13.30
2023-03-24T13:18:43.097Z,14.15
2023-03-24T13:23:51.632Z,14.28
2023-03-24T13:29:07.680Z,13.83
2023-03-24T13:34:23.674Z,13.58
2023-03-24T13:39:27.827Z,14.08
2023-03-24T13:44:39.034Z,15.02
2023-03-24T13:49:44.121Z,15.11
2023-03-24T13:54:48.695Z,14.69
2023-03-24T14:00:20.518Z,14.96
2023-03-24T14:05:35.020Z,14.77
2023-03-24T14:10:43.679Z,14.52
2023-03-24T14:15:50.764Z,14.56
2023-03-24T14:21:01.842Z,14.16
2023-03-24T14:26:05.706Z,14.07
2023-03-24T14:31:21.417Z,14.16
2023-03-24T14:36:30.372Z,13.79
2023-03-24T14:41:34.283Z,13.64
2023-03-24T14:46:40.867Z,13.52
2023-03-24T14:51:46.449Z,13.39
2023-03-24T14:56:52.951Z,13.21
2023-03-24T15:02:02.562Z,13.17
2023-03-24T15:07:06.211Z,12.78
2023-03-24T15:12:08.891Z,11.47
2023-03-24T15:17:19.922Z,10.77
2023-03-24T15:22:22.713Z,11.28
2023-03-24T15:27:27.528Z,11.08
2023-03-24T15:32:39.150Z,10.95
2023-03-24T15:37:48.249Z,10.99
2023-03-24T15:42:51.102Z,10.99
2023-03-24T15:47:55.718Z,11.35
2023-03-24T15:53:03.384Z,11.22
2023-03-24T15:58:23.017Z,10.81
2023-03-24T16:03:27.494Z,10.85
2023-03-24T16:08:35.979Z,11.05
2023-03-24T16:13:40.012Z,11.27
2023-03-24T16:18:45.321Z,11.45
2023-03-24T16:23:48.664Z,11.52
2023-03-24T16:28:52.630Z,11.42
2023-03-24T16:33:57.880Z,11.46
2023-03-24T16:39:01.555Z,11.42
2023-03-24T16:44:04.538Z,11.41
2023-03-24T16:49:11.172Z,11.28
2023-03-24T16:54:14.171Z,11.35
2023-03-24T16:59:17.022Z,11.14
2023-03-24T17:04:25.732Z,11.15
2023-03-24T17:09:30.620Z,11.00
2023-03-24T17:14:33.323Z,10.75
2023-03-24T17:19:38.210Z,10.64
2023-03-24T17:24:42.174Z,10.49
2023-03-24T17:29:44.988Z,10.47
2023-03-24T17:34:49.082Z,10.55
2023-03-24T17:39:51.826Z,10.29
2023-03-24T17:44:54.685Z,10.37
2023-03-24T17:49:58.846Z,10.40
2023-03-24T17:55:04.287Z,10.20
2023-03-24T18:00:11.433Z,10.10
2023-03-24T18:05:16.144Z,9.87
2023-03-24T18:10:20.503Z,9.82
2023-03-24T18:15:46.068Z,9.74
2023-03-24T18:20:51.123Z,9.80
2023-03-24T18:26:00.489Z,9.71
2023-03-24T18:31:03.323Z,9.52
2023-03-24T18:36:10.587Z,9.58
2023-03-24T18:41:26.829Z,9.49
2023-03-24T18:46:46.385Z,9.41
2023-03-24T18:51:50.637Z,9.50
2023-03-24T18:56:53.348Z,9.13
2023-03-24T19:01:56.139Z,9.22
2023-03-24T19:07:00.522Z,9.13
2023-03-24T19:12:03.552Z,9.18
2023-03-24T19:17:06.843Z,9.20
2023-03-24T19:22:11.035Z,9.11
2023-03-24T19:27:13.770Z,9.08
2023-03-24T19:32:16.936Z,8.96
2023-03-24T19:37:23.042Z,8.98
2023-03-24T19:42:26.320Z,8.91
2023-03-24T19:47:29.146Z,8.87
2023-03-24T19:52:33.410Z,8.80
2023-03-24T19:57:36.545Z,8.75
2023-03-24T20:02:39.465Z,8.78
2023-03-24T20:07:44.209Z,8.72
2023-03-24T20:12:46.939Z,8.83
2023-03-24T20:17:49.742Z,8.64
2023-03-24T20:22:54.214Z,8.71
2023-03-24T20:28:01.244Z,8.57
2023-03-24T20:33:04.533Z,8.59
2023-03-24T20:38:08.904Z,8.58
2023-03-24T20:43:12.175Z,8.58
2023-03-24T20:48:14.962Z,8.48
2023-03-24T20:53:19.858Z,8.52
2023-03-24T20:58:22.879Z,8.41
2023-03-24T21:03:26.557Z,8.49
2023-03-24T21:08:31.260Z,8.54
2023-03-24T21:13:37.914Z,8.58
2023-03-24T21:18:43.597Z,8.66
2023-03-24T21:23:48.038Z,8.69
2023-03-24T21:28:51.183Z,8.72
2023-03-24T21:33:55.074Z,8.73
2023-03-24T21:38:59.299Z,8.70
2023-03-24T21:44:03.268Z,8.66
2023-03-24T21:49:06.327Z,8.64
2023-03-24T21:54:10.443Z,8.55
2023-03-24T21:59:13.509Z,8.59
2023-03-24T22:04:17.489Z,8.50
2023-03-24T22:09:21.615Z,8.48
2023-03-24T22:14:24.305Z,8.50
2023-03-24T22:19:27.465Z,8.48
2023-03-24T22:24:31.738Z,8.38
2023-03-24T22:29:34.415Z,8.46
2023-03-24T22:34:38.044Z,8.49
2023-03-24T22:39:42.302Z,8.54
2023-03-24T22:44:45.004Z,8.56
2023-03-24T22:49:49.102Z,8.49
2023-03-24T22:54:53.335Z,8.50
2023-03-24T22:59:56.856Z,8.41
2023-03-24T23:04:59.558Z,8.37
2023-03-24T23:10:06.394Z,8.42
2023-03-24T23:15:11.117Z,8.32
2023-03-24T23:20:15.514Z,8.29
2023-03-24T23:25:19.929Z,8.20
2023-03-24T23:30:22.668Z,8.24
2023-03-24T23:35:25.584Z,8.31
2023-03-24T23:40:30.658Z,8.29
2023-03-24T23:45:33.526Z,8.33
2023-03-24T23:50:36.270Z,8.37
2023-03-24T23:55:42.783Z,8.36
